Time;durP1;ratioP1;P1;durP2;ratioP2;P2;SDS_P1;SDS_P2;PMS_P1;PMS_P2;Temp;Humidity;BMP_temperature;BMP_pressure;BME280_temperature;BME280_humidity;BME280_pressure;Samples;Min_cycle;Max_cycle;Signal;HPM_P1;HPM_P2
2023/08/30 00:01:37;;;;;;;;;;;22.90;52.50;;;;;;5105373;27;19934;-58
2023/08/30 00:04:04;;;;;;;;;;;22.90;52.50;;;;;;5114048;28;20422;-57
2023/08/30 00:06:31;;;;;;;;;;;22.90;52.40;;;;;;5132312;27;19935;-58
2023/08/30 00:08:58;;;;;;;;;;;22.90;52.40;;;;;;5109474;27;19996;-57
2023/08/30 00:11:25;;;;;;;;;;;22.90;52.50;;;;;;5110125;27;19935;-57
2023/08/30 00:13:52;;;;;;;;;;;22.90;52.40;;;;;;5128207;27;19932;-57
2023/08/30 00:16:20;;;;;;;;;;;22.90;52.40;;;;;;5104974;28;20533;-58
2023/08/30 00:18:46;;;;;;;;;;;22.90;52.40;;;;;;5111845;27;19976;-58
2023/08/30 00:21:13;;;;;;;;;;;22.90;52.40;;;;;;5124664;27;20273;-57
2023/08/30 00:23:40;;;;;;;;;;;22.90;52.40;;;;;;5118185;27;19996;-57
2023/08/30 00:26:07;;;;;;;;;;;22.90;52.40;;;;;;5109178;27;19927;-58
2023/08/30 00:28:34;;;;;;;;;;;22.90;52.50;;;;;;5117163;27;19934;-57
2023/08/30 00:31:01;;;;;;;;;;;22.90;52.40;;;;;;5111467;27;19938;-57
2023/08/30 00:33:29;;;;;;;;;;;22.90;52.50;;;;;;5104337;28;19928;-57
2023/08/30 00:35:56;;;;;;;;;;;22.90;52.50;;;;;;5106699;27;20333;-58
2023/08/30 00:38:23;;;;;;;;;;;22.90;52.40;;;;;;5123300;27;19923;-58
2023/08/30 00:40:50;;;;;;;;;;;22.90;52.50;;;;;;5105577;27;19923;-57
2023/08/30 00:43:16;;;;;;;;;;;22.90;52.50;;;;;;5125714;27;20467;-58
2023/08/30 00:45:43;;;;;;;;;;;22.90;52.40;;;;;;5112630;27;19976;-58
2023/08/30 00:48:10;;;;;;;;;;;22.80;52.40;;;;;;5129984;27;19988;-58
2023/08/30 00:50:38;;;;;;;;;;;22.90;53.00;;;;;;5099619;28;19928;-58
2023/08/30 00:53:06;;;;;;;;;;;22.80;52.30;;;;;;5104749;28;19931;-58
2023/08/30 00:55:34;;;;;;;;;;;22.90;52.40;;;;;;5102841;27;19924;-58
2023/08/30 00:58:01;;;;;;;;;;;22.80;52.30;;;;;;5100594;28;19935;-58
2023/08/30 01:00:28;;;;;;;;;;;22.80;52.30;;;;;;5093187;28;19931;-58
2023/08/30 01:02:55;;;;;;;;;;;22.80;52.30;;;;;;5104171;27;20339;-57
2023/08/30 01:05:22;;;;;;;;;;;22.80;52.30;;;;;;5097866;28;19934;-58
2023/08/30 01:07:50;;;;;;;;;;;22.80;52.90;;;;;;5104944;27;19923;-57
2023/08/30 01:10:17;;;;;;;;;;;22.80;52.30;;;;;;5104051;27;19923;-58
2023/08/30 01:12:44;;;;;;;;;;;22.80;52.30;;;;;;5124801;27;20465;-58
2023/08/30 01:15:11;;;;;;;;;;;22.80;52.30;;;;;;5124285;27;19927;-58
2023/08/30 01:17:38;;;;;;;;;;;22.70;52.30;;;;;;5107104;27;19923;-57
2023/08/30 01:20:07;;;;;;;;;;;22.80;52.30;;;;;;5100613;28;19962;-58
2023/08/30 01:22:39;;;;;;;;;;;22.80;52.30;;;;;;5111333;27;19923;-58
2023/08/30 01:25:13;;;;;;;;;;;22.80;52.30;;;;;;5104539;27;20296;-57
2023/08/30 01:27:41;;;;;;;;;;;22.80;52.30;;;;;;5107360;27;19964;-58
2023/08/30 01:30:08;;;;;;;;;;;22.80;52.30;;;;;;5132040;27;19932;-58
2023/08/30 01:32:35;;;;;;;;;;;22.70;52.20;;;;;;5111422;27;19979;-58
2023/08/30 01:35:02;;;;;;;;;;;22.70;52.20;;;;;;5116030;27;19931;-57
2023/08/30 01:37:29;;;;;;;;;;;22.80;52.20;;;;;;5107700;27;19934;-58
2023/08/30 01:39:56;;;;;;;;;;;22.70;52.20;;;;;;5109246;27;19923;-57
2023/08/30 01:42:23;;;;;;;;;;;22.70;52.20;;;;;;5115684;27;19972;-58
2023/08/30 01:44:54;;;;;;;;;;;22.70;52.20;;;;;;5112077;27;19962;-58
2023/08/30 01:47:21;;;;;;;;;;;22.70;52.20;;;;;;5125215;27;19926;-58
2023/08/30 01:49:48;;;;;;;;;;;22.70;52.20;;;;;;5102178;27;19927;-58
2023/08/30 01:52:14;;;;;;;;;;;22.70;52.20;;;;;;5115246;27;19923;-57
2023/08/30 01:54:41;;;;;;;;;;;22.70;52.20;;;;;;5098329;28;19923;-58
2023/08/30 01:57:08;;;;;;;;;;;22.70;52.20;;;;;;5082059;28;19940;-58
2023/08/30 01:59:35;;;;;;;;;;;22.70;52.20;;;;;;5102111;28;19935;-58
2023/08/30 02:02:04;;;;;;;;;;;22.70;52.20;;;;;;5102835;28;20460;-57
2023/08/30 02:04:31;;;;;;;;;;;22.70;52.20;;;;;;5115234;27;19928;-57
2023/08/30 02:06:59;;;;;;;;;;;22.70;52.20;;;;;;5104412;27;19928;-58
2023/08/30 02:09:30;;;;;;;;;;;22.70;52.20;;;;;;5108935;27;19980;-58
2023/08/30 02:11:57;;;;;;;;;;;22.70;52.10;;;;;;5122610;27;20416;-58
2023/08/30 02:14:24;;;;;;;;;;;22.70;52.10;;;;;;5102707;28;19932;-57
2023/08/30 02:16:51;;;;;;;;;;;22.70;52.10;;;;;;5110954;27;19923;-58
2023/08/30 02:19:20;;;;;;;;;;;22.70;52.10;;;;;;5101560;28;19927;-58
2023/08/30 02:21:47;;;;;;;;;;;22.70;52.20;;;;;;5096978;28;19920;-57
2023/08/30 02:24:14;;;;;;;;;;;22.70;52.10;;;;;;5101949;28;19927;-58
2023/08/30 02:26:41;;;;;;;;;;;22.70;52.10;;;;;;5102044;27;20333;-58
2023/08/30 02:29:08;;;;;;;;;;;22.70;52.10;;;;;;5102661;28;20122;-57
2023/08/30 02:31:34;;;;;;;;;;;22.70;52.10;;;;;;5100882;27;19930;-57
2023/08/30 02:34:02;;;;;;;;;;;22.70;52.70;;;;;;5103271;28;19972;-58
2023/08/30 02:36:30;;;;;;;;;;;22.70;52.10;;;;;;5091635;28;19925;-57
2023/08/30 02:38:57;;;;;;;;;;;22.70;52.10;;;;;;5127255;27;20000;-58
2023/08/30 02:41:23;;;;;;;;;;;22.60;52.00;;;;;;5126258;27;19928;-58
2023/08/30 02:43:50;;;;;;;;;;;22.60;52.00;;;;;;5102270;28;19924;-58
2023/08/30 02:46:17;;;;;;;;;;;22.70;52.10;;;;;;5098840;27;19961;-58
2023/08/30 02:48:44;;;;;;;;;;;22.60;52.00;;;;;;5113306;27;19930;-57
2023/08/30 02:51:11;;;;;;;;;;;22.70;52.10;;;;;;5123185;27;19928;-57
2023/08/30 02:53:39;;;;;;;;;;;22.60;52.10;;;;;;5099261;27;19980;-57
2023/08/30 02:56:05;;;;;;;;;;;22.70;52.20;;;;;;5096978;27;19969;-57
2023/08/30 02:58:32;;;;;;;;;;;22.60;52.00;;;;;;5114005;27;19928;-58
2023/08/30 03:00:59;;;;;;;;;;;22.70;52.10;;;;;;5099052;27;19935;-57
2023/08/30 03:03:26;;;;;;;;;;;22.60;52.10;;;;;;5113778;27;19984;-58
2023/08/30 03:05:52;;;;;;;;;;;22.60;52.10;;;;;;5089208;27;19928;-58
2023/08/30 03:08:19;;;;;;;;;;;22.60;52.00;;;;;;5110432;27;20016;-57
2023/08/30 03:10:47;;;;;;;;;;;22.60;52.10;;;;;;5119773;27;19930;-57
2023/08/30 03:13:14;;;;;;;;;;;22.60;52.10;;;;;;5102863;28;19952;-58
2023/08/30 03:15:41;;;;;;;;;;;22.60;52.00;;;;;;5130024;27;19928;-58
2023/08/30 03:18:08;;;;;;;;;;;22.60;52.10;;;;;;5102204;28;19927;-58
2023/08/30 03:20:35;;;;;;;;;;;22.60;52.10;;;;;;5096792;28;20368;-58
2023/08/30 03:23:01;;;;;;;;;;;22.60;52.10;;;;;;5104151;27;19924;-57
2023/08/30 03:25:29;;;;;;;;;;;22.60;52.20;;;;;;5103106;27;19923;-57
2023/08/30 03:27:57;;;;;;;;;;;22.60;52.20;;;;;;5105777;27;19923;-58
2023/08/30 03:30:24;;;;;;;;;;;22.60;52.20;;;;;;5127766;27;19924;-57
2023/08/30 03:32:51;;;;;;;;;;;22.60;52.20;;;;;;5113388;27;19931;-58
2023/08/30 03:35:20;;;;;;;;;;;22.60;52.20;;;;;;5100084;28;19935;-57
2023/08/30 03:37:47;;;;;;;;;;;22.60;52.20;;;;;;5126909;27;19928;-58
2023/08/30 03:40:14;;;;;;;;;;;22.60;52.30;;;;;;5115231;27;19927;-57
2023/08/30 03:42:40;;;;;;;;;;;22.60;52.30;;;;;;5097074;28;19968;-59
2023/08/30 03:45:09;;;;;;;;;;;22.60;52.20;;;;;;5104536;28;19928;-58
2023/08/30 03:47:36;;;;;;;;;;;22.60;52.20;;;;;;5108221;28;19931;-58
2023/08/30 03:50:03;;;;;;;;;;;22.60;52.20;;;;;;5098418;28;19963;-59
2023/08/30 03:52:30;;;;;;;;;;;22.60;52.20;;;;;;5101165;28;19946;-57
2023/08/30 03:54:57;;;;;;;;;;;22.60;52.20;;;;;;5108458;28;20158;-58
2023/08/30 03:57:24;;;;;;;;;;;22.60;52.30;;;;;;5089496;28;20395;-58
2023/08/30 03:59:50;;;;;;;;;;;22.60;52.30;;;;;;5105834;28;19923;-57
2023/08/30 04:02:18;;;;;;;;;;;22.60;52.30;;;;;;5101031;28;19931;-58
2023/08/30 04:04:47;;;;;;;;;;;22.60;52.30;;;;;;5127355;28;21154;-57
2023/08/30 04:07:14;;;;;;;;;;;22.60;52.30;;;;;;5110082;28;19928;-57
2023/08/30 04:09:40;;;;;;;;;;;22.60;52.40;;;;;;5101780;28;19924;-57
2023/08/30 04:12:07;;;;;;;;;;;22.60;52.40;;;;;;5111491;28;19923;-58
2023/08/30 04:14:34;;;;;;;;;;;22.60;52.40;;;;;;5096401;28;19928;-57
2023/08/30 04:17:02;;;;;;;;;;;22.60;52.40;;;;;;5101683;28;19931;-58
2023/08/30 04:19:30;;;;;;;;;;;22.60;52.40;;;;;;5130872;27;19934;-57
2023/08/30 04:21:57;;;;;;;;;;;22.60;52.40;;;;;;5130715;27;19990;-57
2023/08/30 04:24:24;;;;;;;;;;;22.60;52.40;;;;;;5105227;28;19928;-57
2023/08/30 04:26:52;;;;;;;;;;;22.60;52.40;;;;;;5095232;28;19928;-58
2023/08/30 04:29:19;;;;;;;;;;;22.60;52.50;;;;;;5099647;28;20006;-57
2023/08/30 04:31:46;;;;;;;;;;;22.60;52.50;;;;;;5104392;28;19972;-57
2023/08/30 04:34:13;;;;;;;;;;;22.60;52.50;;;;;;5131291;28;19976;-57
2023/08/30 04:36:41;;;;;;;;;;;22.50;52.40;;;;;;5095946;28;19928;-58
2023/08/30 04:39:07;;;;;;;;;;;22.60;52.50;;;;;;5127191;28;19924;-57
2023/08/30 04:41:34;;;;;;;;;;;22.60;52.50;;;;;;5119147;28;19923;-58
2023/08/30 04:44:01;;;;;;;;;;;22.60;52.50;;;;;;5108194;28;19979;-57
2023/08/30 04:46:28;;;;;;;;;;;22.60;52.50;;;;;;5114820;28;19977;-57
2023/08/30 04:48:54;;;;;;;;;;;22.60;52.50;;;;;;5117781;27;19920;-57
2023/08/30 04:51:21;;;;;;;;;;;22.50;52.40;;;;;;5111398;28;19989;-57
2023/08/30 04:53:49;;;;;;;;;;;22.50;52.50;;;;;;5104979;28;19976;-57
2023/08/30 04:56:17;;;;;;;;;;;22.50;52.50;;;;;;5116841;27;19980;-58
2023/08/30 04:58:44;;;;;;;;;;;22.50;52.40;;;;;;5107872;27;19930;-57
2023/08/30 05:01:13;;;;;;;;;;;22.50;52.50;;;;;;5116798;27;19976;-57
2023/08/30 05:03:39;;;;;;;;;;;22.50;52.50;;;;;;5123547;27;19930;-57
2023/08/30 05:06:07;;;;;;;;;;;22.50;52.50;;;;;;5100752;27;19919;-58
2023/08/30 05:08:33;;;;;;;;;;;22.50;52.60;;;;;;5108532;27;19942;-58
2023/08/30 05:11:02;;;;;;;;;;;22.50;52.60;;;;;;5107601;27;19923;-58
2023/08/30 05:13:29;;;;;;;;;;;22.50;52.50;;;;;;5108328;27;19935;-58
2023/08/30 05:15:56;;;;;;;;;;;22.50;52.50;;;;;;5099766;27;19973;-58
2023/08/30 05:18:23;;;;;;;;;;;22.50;52.50;;;;;;5110958;28;20064;-58
2023/08/30 05:20:49;;;;;;;;;;;22.50;52.80;;;;;;5112830;27;19924;-57
2023/08/30 05:23:16;;;;;;;;;;;22.50;52.50;;;;;;5104854;28;19980;-57
2023/08/30 05:25:43;;;;;;;;;;;22.50;52.50;;;;;;5110865;28;19928;-59
2023/08/30 05:28:11;;;;;;;;;;;22.50;52.50;;;;;;5104231;28;19924;-58
2023/08/30 05:30:38;;;;;;;;;;;22.50;52.50;;;;;;5104515;28;19939;-58
2023/08/30 05:33:05;;;;;;;;;;;22.50;52.50;;;;;;5119076;27;19924;-58
2023/08/30 05:35:32;;;;;;;;;;;22.50;52.50;;;;;;5097396;28;20013;-58
2023/08/30 05:37:58;;;;;;;;;;;22.50;52.40;;;;;;5101413;27;19980;-58
2023/08/30 05:40:25;;;;;;;;;;;22.50;52.50;;;;;;5115455;27;19965;-57
2023/08/30 05:42:54;;;;;;;;;;;22.50;52.50;;;;;;5125996;27;19967;-57
2023/08/30 05:45:22;;;;;;;;;;;22.50;52.50;;;;;;5093587;28;19928;-57
2023/08/30 05:47:49;;;;;;;;;;;22.50;52.50;;;;;;5096806;27;19924;-58
2023/08/30 05:50:16;;;;;;;;;;;22.50;52.50;;;;;;5102410;28;19935;-58
2023/08/30 05:52:44;;;;;;;;;;;22.50;52.50;;;;;;5097077;28;19927;-58
2023/08/30 05:55:11;;;;;;;;;;;22.50;52.50;;;;;;5095286;28;19930;-58
2023/08/30 05:57:38;;;;;;;;;;;22.50;52.50;;;;;;5098194;28;19930;-58
2023/08/30 06:00:05;;;;;;;;;;;22.50;52.60;;;;;;5099686;27;19923;-61
2023/08/30 06:02:33;;;;;;;;;;;22.50;52.70;;;;;;5097985;28;19977;-61
2023/08/30 06:05:00;;;;;;;;;;;22.50;52.50;;;;;;5103607;27;19943;-61
2023/08/30 06:07:27;;;;;;;;;;;22.50;52.20;;;;;;5122093;27;19977;-61
2023/08/30 06:09:54;;;;;;;;;;;22.40;52.20;;;;;;5114308;28;19994;-61
2023/08/30 06:12:20;;;;;;;;;;;22.40;52.20;;;;;;5114107;27;19989;-61
2023/08/30 06:14:51;;;;;;;;;;;22.40;52.20;;;;;;5096354;27;19972;-61
2023/08/30 06:17:18;;;;;;;;;;;22.30;52.20;;;;;;5110744;27;19946;-61
2023/08/30 06:19:46;;;;;;;;;;;22.30;52.40;;;;;;5111417;27;20423;-61
2023/08/30 06:22:13;;;;;;;;;;;22.20;52.50;;;;;;5092585;27;19923;-61
2023/08/30 06:24:40;;;;;;;;;;;22.10;52.60;;;;;;5098631;28;19923;-62
2023/08/30 06:27:07;;;;;;;;;;;22.10;52.80;;;;;;5097665;27;19969;-62
2023/08/30 06:29:33;;;;;;;;;;;22.00;52.80;;;;;;5094528;28;19928;-61
2023/08/30 06:32:00;;;;;;;;;;;22.00;52.90;;;;;;5097640;27;19934;-62
2023/08/30 06:34:27;;;;;;;;;;;22.00;53.70;;;;;;5094885;28;19927;-62
2023/08/30 06:36:55;;;;;;;;;;;21.90;53.20;;;;;;5114436;27;20730;-61
2023/08/30 06:39:22;;;;;;;;;;;21.90;53.50;;;;;;5100829;27;20556;-62
2023/08/30 06:41:49;;;;;;;;;;;21.90;53.60;;;;;;5113876;27;19932;-61
2023/08/30 06:44:16;;;;;;;;;;;21.80;53.60;;;;;;5114024;27;19935;-62
2023/08/30 06:46:43;;;;;;;;;;;21.80;53.70;;;;;;5095668;27;19946;-61
2023/08/30 06:49:11;;;;;;;;;;;21.70;53.80;;;;;;5118474;27;19924;-61
2023/08/30 06:51:38;;;;;;;;;;;21.70;53.90;;;;;;5093187;28;19932;-62
2023/08/30 06:54:06;;;;;;;;;;;21.70;54.10;;;;;;5095852;27;19934;-62
2023/08/30 06:56:33;;;;;;;;;;;21.70;54.10;;;;;;5095853;28;19931;-62
2023/08/30 06:58:59;;;;;;;;;;;21.70;54.00;;;;;;5096860;27;19924;-61
2023/08/30 07:01:26;;;;;;;;;;;21.70;54.00;;;;;;5091346;28;19973;-61
2023/08/30 07:03:53;;;;;;;;;;;21.70;54.00;;;;;;5098570;27;19984;-61
2023/08/30 07:06:19;;;;;;;;;;;21.70;54.20;;;;;;5112247;27;19985;-61
2023/08/30 07:08:46;;;;;;;;;;;21.60;54.30;;;;;;5100441;27;19968;-61
2023/08/30 07:11:14;;;;;;;;;;;21.60;54.40;;;;;;5099515;27;19924;-62
2023/08/30 07:13:41;;;;;;;;;;;21.60;54.60;;;;;;5093302;28;19924;-62
2023/08/30 07:16:08;;;;;;;;;;;21.60;54.60;;;;;;5090045;28;19974;-63
2023/08/30 07:18:35;;;;;;;;;;;21.60;54.60;;;;;;5123515;27;19923;-61
2023/08/30 07:21:02;;;;;;;;;;;21.60;54.60;;;;;;5095061;28;19981;-62
2023/08/30 07:23:29;;;;;;;;;;;21.60;54.70;;;;;;5096674;28;19923;-61
2023/08/30 07:25:56;;;;;;;;;;;21.60;54.80;;;;;;5095446;27;19932;-61
2023/08/30 07:28:24;;;;;;;;;;;21.60;54.80;;;;;;5114278;27;19977;-61
2023/08/30 07:30:51;;;;;;;;;;;21.60;54.90;;;;;;5113183;27;19923;-62
2023/08/30 07:33:17;;;;;;;;;;;21.60;55.00;;;;;;5100305;27;19934;-61
2023/08/30 07:35:44;;;;;;;;;;;21.60;54.80;;;;;;5094746;28;19930;-61
2023/08/30 07:38:11;;;;;;;;;;;21.60;54.90;;;;;;5120992;27;19931;-61
2023/08/30 07:40:38;;;;;;;;;;;21.50;54.80;;;;;;5094627;28;19924;-61
2023/08/30 07:43:04;;;;;;;;;;;21.50;54.90;;;;;;5117220;28;19973;-62
2023/08/30 07:45:32;;;;;;;;;;;21.50;54.90;;;;;;5098286;28;20044;-62
2023/08/30 07:47:59;;;;;;;;;;;21.50;54.80;;;;;;5096213;28;19931;-62
2023/08/30 07:50:26;;;;;;;;;;;21.50;54.80;;;;;;5094489;28;19928;-62
2023/08/30 07:52:53;;;;;;;;;;;21.50;54.70;;;;;;5100586;28;20115;-61
2023/08/30 07:55:19;;;;;;;;;;;21.50;54.90;;;;;;5103712;27;19930;-61
2023/08/30 07:57:46;;;;;;;;;;;21.50;54.90;;;;;;5118770;28;19927;-61
2023/08/30 08:00:13;;;;;;;;;;;21.50;55.00;;;;;;5095598;28;19984;-61
2023/08/30 08:02:41;;;;;;;;;;;21.50;54.90;;;;;;5094650;28;19924;-62
2023/08/30 08:05:08;;;;;;;;;;;21.50;54.80;;;;;;5096396;28;19963;-61
2023/08/30 08:07:37;;;;;;;;;;;21.50;54.90;;;;;;5128504;27;19928;-62
2023/08/30 08:10:05;;;;;;;;;;;21.50;55.00;;;;;;5090785;28;19954;-61
2023/08/30 08:12:31;;;;;;;;;;;21.50;55.00;;;;;;5127034;27;19924;-59
2023/08/30 08:14:58;;;;;;;;;;;21.50;55.20;;;;;;5093308;28;19924;-58
2023/08/30 08:17:25;;;;;;;;;;;21.60;55.10;;;;;;5102822;28;19928;-59
2023/08/30 08:19:53;;;;;;;;;;;21.60;55.00;;;;;;5115452;28;19924;-58
2023/08/30 08:22:20;;;;;;;;;;;21.60;54.80;;;;;;5094814;28;19936;-58
2023/08/30 08:24:47;;;;;;;;;;;21.60;54.80;;;;;;5097223;27;19927;-58
2023/08/30 08:27:14;;;;;;;;;;;21.70;54.70;;;;;;5097568;28;19923;-58
2023/08/30 08:29:41;;;;;;;;;;;21.70;54.50;;;;;;5103320;28;20004;-58
2023/08/30 08:32:08;;;;;;;;;;;21.70;54.50;;;;;;5097601;27;19923;-58
2023/08/30 08:34:35;;;;;;;;;;;21.80;54.50;;;;;;5100322;28;19969;-56
2023/08/30 08:37:03;;;;;;;;;;;21.80;54.50;;;;;;5125922;27;19935;-54
2023/08/30 08:39:31;;;;;;;;;;;21.90;54.50;;;;;;5125231;27;19924;-57
2023/08/30 08:41:57;;;;;;;;;;;21.90;54.50;;;;;;5116472;27;19976;-58
2023/08/30 08:44:24;;;;;;;;;;;21.90;54.40;;;;;;5100365;28;19935;-59
2023/08/30 08:46:52;;;;;;;;;;;22.00;54.40;;;;;;5117057;27;19976;-58
2023/08/30 08:49:19;;;;;;;;;;;22.00;54.40;;;;;;5107953;27;19972;-59
2023/08/30 08:51:46;;;;;;;;;;;22.00;54.30;;;;;;5124243;27;19924;-58
2023/08/30 08:54:16;;;;;;;;;;;22.00;54.30;;;;;;5116663;27;19949;-58
2023/08/30 08:56:43;;;;;;;;;;;22.00;54.20;;;;;;5099243;28;20436;-59
2023/08/30 08:59:10;;;;;;;;;;;22.10;54.30;;;;;;5108631;27;19945;-55
2023/08/30 09:01:39;;;;;;;;;;;22.10;54.20;;;;;;5119691;27;19928;-56
2023/08/30 09:04:07;;;;;;;;;;;22.10;54.20;;;;;;5104502;28;19928;-58
2023/08/30 09:06:34;;;;;;;;;;;22.20;54.30;;;;;;5101475;28;19927;-54
2023/08/30 09:09:01;;;;;;;;;;;22.20;54.20;;;;;;5103801;27;20502;-57
2023/08/30 09:11:29;;;;;;;;;;;22.20;54.20;;;;;;5108377;27;19934;-59
2023/08/30 09:13:56;;;;;;;;;;;22.20;54.10;;;;;;5108229;27;19951;-58
2023/08/30 09:16:23;;;;;;;;;;;22.20;54.00;;;;;;5102362;28;19923;-57
2023/08/30 09:18:58;;;;;;;;;;;22.20;54.00;;;;;;5103284;27;19931;-58
2023/08/30 09:21:24;;;;;;;;;;;22.30;54.10;;;;;;5098394;27;19993;-60
2023/08/30 09:23:57;;;;;;;;;;;22.30;54.00;;;;;;5101608;27;19992;-58
2023/08/30 09:26:24;;;;;;;;;;;22.30;54.50;;;;;;5103094;28;19928;-58
2023/08/30 09:28:52;;;;;;;;;;;22.30;53.90;;;;;;5113498;27;20308;-58
2023/08/30 09:31:20;;;;;;;;;;;22.30;53.90;;;;;;5094408;27;19923;-58
2023/08/30 09:33:48;;;;;;;;;;;22.30;53.90;;;;;;5101337;27;19924;-58
2023/08/30 09:36:15;;;;;;;;;;;22.30;53.90;;;;;;5118304;27;19974;-58
2023/08/30 09:38:42;;;;;;;;;;;22.30;53.90;;;;;;5106576;28;19979;-57
2023/08/30 09:41:09;;;;;;;;;;;22.30;53.90;;;;;;5119316;27;19984;-58
2023/08/30 09:43:36;;;;;;;;;;;22.40;53.90;;;;;;5102907;28;19924;-59
2023/08/30 09:46:05;;;;;;;;;;;22.40;53.70;;;;;;5130550;27;19963;-59
2023/08/30 09:48:32;;;;;;;;;;;22.40;53.70;;;;;;5120707;27;19923;-59
2023/08/30 09:50:59;;;;;;;;;;;22.40;54.20;;;;;;5102737;27;19923;-59
2023/08/30 09:53:27;;;;;;;;;;;22.40;53.60;;;;;;5119101;27;20098;-59
2023/08/30 09:55:54;;;;;;;;;;;22.40;53.60;;;;;;5131026;27;20054;-59
2023/08/30 09:58:20;;;;;;;;;;;22.40;53.50;;;;;;5106729;28;19977;-58
2023/08/30 10:00:47;;;;;;;;;;;22.40;53.50;;;;;;5096130;28;19928;-59
2023/08/30 10:03:16;;;;;;;;;;;22.40;53.50;;;;;;5124787;27;19945;-59
2023/08/30 10:05:43;;;;;;;;;;;22.40;53.50;;;;;;5106708;27;20499;-59
2023/08/30 10:08:10;;;;;;;;;;;22.40;53.40;;;;;;5105555;28;19931;-60
2023/08/30 10:10:36;;;;;;;;;;;22.50;53.50;;;;;;5095542;28;19972;-60
2023/08/30 10:13:03;;;;;;;;;;;22.50;53.40;;;;;;5101257;27;19985;-60
2023/08/30 10:15:30;;;;;;;;;;;22.50;53.00;;;;;;5116886;27;19965;-59
2023/08/30 10:17:57;;;;;;;;;;;22.50;52.80;;;;;;5107892;27;19931;-61
2023/08/30 10:20:25;;;;;;;;;;;22.40;52.50;;;;;;5107216;28;19945;-61
2023/08/30 10:22:52;;;;;;;;;;;22.50;52.60;;;;;;5103164;27;19924;-60
2023/08/30 10:25:19;;;;;;;;;;;22.50;52.60;;;;;;5119052;27;19931;-60
2023/08/30 10:27:47;;;;;;;;;;;22.50;52.70;;;;;;5105374;28;19923;-60
2023/08/30 10:30:14;;;;;;;;;;;22.50;52.70;;;;;;5104008;27;20420;-60
2023/08/30 10:32:40;;;;;;;;;;;22.50;52.80;;;;;;5100897;28;20082;-60
2023/08/30 10:35:07;;;;;;;;;;;22.50;52.80;;;;;;5100104;27;19976;-59
2023/08/30 10:37:35;;;;;;;;;;;22.50;52.80;;;;;;5101199;28;19931;-59
2023/08/30 10:40:03;;;;;;;;;;;22.50;52.70;;;;;;5123507;27;20266;-61
2023/08/30 10:42:30;;;;;;;;;;;22.50;52.70;;;;;;5099431;28;19978;-59
2023/08/30 10:44:57;;;;;;;;;;;22.50;52.70;;;;;;5098534;28;19924;-61
2023/08/30 10:47:25;;;;;;;;;;;22.50;52.60;;;;;;5128017;27;19931;-61
2023/08/30 10:49:54;;;;;;;;;;;22.50;53.20;;;;;;5129333;27;19969;-60
2023/08/30 10:52:21;;;;;;;;;;;22.50;52.40;;;;;;5103365;27;20420;-59
2023/08/30 10:54:50;;;;;;;;;;;22.50;52.30;;;;;;5119190;27;19976;-59
2023/08/30 10:57:17;;;;;;;;;;;22.60;52.50;;;;;;5101484;27;19953;-60
2023/08/30 10:59:48;;;;;;;;;;;22.60;52.20;;;;;;5119905;27;19932;-59
2023/08/30 11:02:16;;;;;;;;;;;22.60;52.30;;;;;;5090662;28;19931;-57
2023/08/30 11:04:42;;;;;;;;;;;22.60;52.30;;;;;;5097899;28;20014;-57
2023/08/30 11:07:09;;;;;;;;;;;22.60;52.30;;;;;;5117728;27;19931;-57
2023/08/30 11:09:39;;;;;;;;;;;22.60;52.30;;;;;;5103554;28;19969;-57
2023/08/30 11:12:07;;;;;;;;;;;22.60;52.30;;;;;;5125441;27;19931;-57
2023/08/30 11:14:34;;;;;;;;;;;22.60;52.30;;;;;;5110136;27;19949;-57
2023/08/30 11:17:01;;;;;;;;;;;22.60;52.20;;;;;;5096161;27;20372;-57
2023/08/30 11:19:30;;;;;;;;;;;22.60;52.10;;;;;;5118076;27;19923;-57
2023/08/30 11:21:56;;;;;;;;;;;22.60;52.00;;;;;;5104482;28;19930;-58
2023/08/30 11:24:23;;;;;;;;;;;22.60;51.90;;;;;;5094994;28;19939;-59
2023/08/30 11:26:53;;;;;;;;;;;22.60;51.90;;;;;;5111431;27;20131;-59
2023/08/30 11:29:21;;;;;;;;;;;22.60;51.90;;;;;;5100748;28;19924;-61
2023/08/30 11:31:48;;;;;;;;;;;22.60;51.90;;;;;;5105350;28;19924;-59
2023/08/30 11:34:15;;;;;;;;;;;22.60;51.70;;;;;;5106496;27;20278;-59
2023/08/30 11:36:42;;;;;;;;;;;22.60;51.80;;;;;;5103620;28;19927;-59
2023/08/30 11:39:10;;;;;;;;;;;22.70;51.90;;;;;;5090508;28;19924;-59
2023/08/30 11:41:36;;;;;;;;;;;22.60;51.90;;;;;;5099411;28;19924;-59
2023/08/30 11:44:03;;;;;;;;;;;22.70;51.80;;;;;;5135032;27;19956;-59
2023/08/30 11:46:32;;;;;;;;;;;22.70;51.80;;;;;;5103884;28;19923;-58
2023/08/30 11:48:59;;;;;;;;;;;22.70;51.70;;;;;;5136760;27;19924;-59
2023/08/30 11:51:26;;;;;;;;;;;22.70;51.80;;;;;;5102293;28;19931;-58
2023/08/30 11:53:54;;;;;;;;;;;22.70;51.80;;;;;;5099552;28;19927;-58
2023/08/30 11:56:20;;;;;;;;;;;22.70;51.80;;;;;;5099460;27;19919;-57
2023/08/30 11:58:47;;;;;;;;;;;22.70;51.60;;;;;;5101879;27;19924;-57
2023/08/30 12:01:14;;;;;;;;;;;22.70;51.50;;;;;;5111409;28;19924;-58
2023/08/30 12:03:42;;;;;;;;;;;22.70;51.60;;;;;;5112141;27;19927;-56
2023/08/30 12:06:12;;;;;;;;;;;22.70;51.70;;;;;;5100230;27;19924;-57
2023/08/30 12:08:39;;;;;;;;;;;22.70;51.70;;;;;;5105888;28;19938;-59
2023/08/30 12:11:06;;;;;;;;;;;22.70;51.70;;;;;;5108877;27;19931;-60
2023/08/30 12:13:33;;;;;;;;;;;22.70;51.60;;;;;;5104918;28;20613;-59
2023/08/30 12:16:00;;;;;;;;;;;22.70;51.70;;;;;;5108206;27;19932;-59
2023/08/30 12:18:28;;;;;;;;;;;22.70;51.60;;;;;;5102601;28;19927;-60
2023/08/30 12:20:56;;;;;;;;;;;22.70;51.70;;;;;;5111139;27;19928;-60
2023/08/30 12:23:23;;;;;;;;;;;22.70;51.70;;;;;;5108360;28;19980;-60
2023/08/30 12:26:00;;;;;;;;;;;22.70;51.70;;;;;;5098872;27;20053;-60
2023/08/30 12:28:27;;;;;;;;;;;22.80;51.70;;;;;;5092756;28;20395;-60
2023/08/30 12:30:53;;;;;;;;;;;22.70;51.60;;;;;;5106940;28;19924;-60
2023/08/30 12:33:20;;;;;;;;;;;22.80;51.70;;;;;;5095340;28;19928;-59
2023/08/30 12:35:47;;;;;;;;;;;22.80;51.70;;;;;;5107910;27;19923;-60
2023/08/30 12:38:17;;;;;;;;;;;22.80;51.60;;;;;;5096723;28;19976;-60
2023/08/30 12:40:44;;;;;;;;;;;22.80;51.60;;;;;;5099920;28;19930;-59
2023/08/30 12:43:11;;;;;;;;;;;22.80;51.50;;;;;;5110468;27;19923;-60
2023/08/30 12:45:39;;;;;;;;;;;22.80;51.40;;;;;;5128069;27;19954;-60
2023/08/30 12:48:06;;;;;;;;;;;22.80;51.40;;;;;;5102153;27;19935;-59
2023/08/30 12:50:32;;;;;;;;;;;22.80;51.40;;;;;;5105559;28;19954;-59
2023/08/30 12:52:59;;;;;;;;;;;22.80;51.50;;;;;;5100442;28;19980;-59
2023/08/30 12:55:28;;;;;;;;;;;22.80;51.50;;;;;;5108566;27;19933;-59
2023/08/30 12:57:54;;;;;;;;;;;22.80;51.50;;;;;;5086953;27;20270;-59
2023/08/30 13:00:21;;;;;;;;;;;22.80;51.50;;;;;;5101423;28;19932;-58
2023/08/30 13:02:48;;;;;;;;;;;22.80;51.40;;;;;;5126295;27;20196;-58
2023/08/30 13:05:15;;;;;;;;;;;22.90;51.30;;;;;;5099734;27;19923;-59
2023/08/30 13:07:42;;;;;;;;;;;22.90;51.40;;;;;;5101367;28;19998;-59
2023/08/30 13:10:09;;;;;;;;;;;22.90;51.50;;;;;;5095989;27;19938;-58
2023/08/30 13:12:37;;;;;;;;;;;22.90;51.50;;;;;;5095417;28;19927;-58
2023/08/30 13:15:04;;;;;;;;;;;22.90;51.60;;;;;;5102637;27;19977;-58
2023/08/30 13:17:31;;;;;;;;;;;22.90;51.60;;;;;;5123708;27;19923;-58
2023/08/30 13:19:58;;;;;;;;;;;22.90;51.60;;;;;;5094560;27;19931;-59
2023/08/30 13:22:24;;;;;;;;;;;22.90;51.50;;;;;;5094480;28;19959;-58
2023/08/30 13:24:51;;;;;;;;;;;22.90;51.50;;;;;;5097724;27;19984;-58
2023/08/30 13:27:18;;;;;;;;;;;22.90;51.50;;;;;;5104451;27;19923;-59
2023/08/30 13:29:46;;;;;;;;;;;22.90;51.60;;;;;;5099783;27;20594;-58
2023/08/30 13:32:13;;;;;;;;;;;22.90;51.60;;;;;;5095629;27;19934;-58
2023/08/30 13:34:43;;;;;;;;;;;22.90;52.10;;;;;;5098568;28;19924;-58
2023/08/30 13:37:10;;;;;;;;;;;22.90;51.50;;;;;;5100160;27;19923;-58
2023/08/30 13:39:37;;;;;;;;;;;23.00;51.60;;;;;;5073839;28;19924;-59
2023/08/30 13:42:04;;;;;;;;;;;23.00;51.70;;;;;;5114941;27;19931;-59
2023/08/30 13:44:31;;;;;;;;;;;23.00;51.70;;;;;;5113845;27;19924;-58
2023/08/30 13:46:59;;;;;;;;;;;22.90;51.60;;;;;;5134183;27;19927;-58
2023/08/30 13:49:26;;;;;;;;;;;22.90;51.60;;;;;;5103605;27;20376;-59
2023/08/30 13:51:53;;;;;;;;;;;23.00;51.40;;;;;;5110257;27;19931;-58
2023/08/30 13:54:20;;;;;;;;;;;23.00;51.40;;;;;;5096445;27;20450;-59
2023/08/30 13:56:47;;;;;;;;;;;23.00;51.20;;;;;;5103896;27;19932;-58
2023/08/30 13:59:14;;;;;;;;;;;23.00;51.20;;;;;;5101335;27;20078;-58
2023/08/30 14:01:40;;;;;;;;;;;23.00;51.20;;;;;;5103349;27;19930;-59
2023/08/30 14:04:09;;;;;;;;;;;23.00;51.90;;;;;;5100545;27;19934;-56
2023/08/30 14:06:36;;;;;;;;;;;23.00;51.30;;;;;;5094346;27;20967;-57
2023/08/30 14:09:04;;;;;;;;;;;23.00;51.20;;;;;;5125797;27;19923;-58
2023/08/30 14:11:31;;;;;;;;;;;23.00;51.00;;;;;;5126669;27;20021;-57
2023/08/30 14:13:58;;;;;;;;;;;23.00;50.90;;;;;;5108701;27;19928;-58
2023/08/30 14:16:25;;;;;;;;;;;23.00;50.90;;;;;;5098805;28;19994;-57